sensor_id;sensor_type;location;lat;lon;timestamp;P1;durP1;ratioP1;P2;durP2;ratioP2
6638;SDS011;3355;52.882;8.430;2024-02-21T07:38:11;26.27;;;15.30;;
6638;SDS011;3355;52.882;8.430;2024-02-21T07:40:37;18.20;;;13.10;;
6638;SDS011;3355;52.882;8.430;2024-02-21T07:43:04;24.00;;;14.40;;
6638;SDS011;3355;52.882;8.430;2024-02-21T07:45:34;21.30;;;14.10;;
6638;SDS011;3355;52.882;8.430;2024-02-21T07:48:00;25.87;;;13.70;;
6638;SDS011;3355;52.882;8.430;2024-02-21T07:50:27;19.67;;;11.77;;
6638;SDS011;3355;52.882;8.430;2024-02-21T07:52:58;26.93;;;12.93;;
6638;SDS011;3355;52.882;8.430;2024-02-21T07:55:25;18.90;;;12.67;;
6638;SDS011;3355;52.882;8.430;2024-02-21T07:57:52;19.63;;;12.60;;
6638;SDS011;3355;52.882;8.430;2024-02-21T08:00:19;19.17;;;12.23;;
6638;SDS011;3355;52.882;8.430;2024-02-21T08:02:49;29.13;;;13.03;;
6638;SDS011;3355;52.882;8.430;2024-02-21T08:05:16;15.43;;;13.20;;
6638;SDS011;3355;52.882;8.430;2024-02-21T08:07:48;26.87;;;14.23;;
6638;SDS011;3355;52.882;8.430;2024-02-21T08:10:16;20.43;;;12.20;;
6638;SDS011;3355;52.882;8.430;2024-02-21T08:12:44;22.53;;;12.80;;
6638;SDS011;3355;52.882;8.430;2024-02-21T08:15:11;16.53;;;12.07;;
6638;SDS011;3355;52.882;8.430;2024-02-21T08:17:41;19.70;;;13.40;;
6638;SDS011;3355;52.882;8.430;2024-02-21T08:20:10;23.20;;;13.23;;
6638;SDS011;3355;52.882;8.430;2024-02-21T08:22:39;18.07;;;11.90;;
6638;SDS011;3355;52.882;8.430;2024-02-21T08:25:08;18.63;;;11.10;;
6638;SDS011;3355;52.882;8.430;2024-02-21T08:27:36;20.30;;;11.50;;
6638;SDS011;3355;52.882;8.430;2024-02-21T08:30:04;15.73;;;11.60;;
6638;SDS011;3355;52.882;8.430;2024-02-21T08:32:34;22.80;;;11.90;;
6638;SDS011;3355;52.882;8.430;2024-02-21T08:35:01;17.17;;;10.90;;
6638;SDS011;3355;52.882;8.430;2024-02-21T08:37:30;19.97;;;11.43;;
6638;SDS011;3355;52.882;8.430;2024-02-21T08:39:57;15.40;;;12.00;;
6638;SDS011;3355;52.882;8.430;2024-02-21T08:42:23;15.73;;;10.80;;
6638;SDS011;3355;52.882;8.430;2024-02-21T08:44:51;14.47;;;10.77;;
6638;SDS011;3355;52.882;8.430;2024-02-21T08:47:18;19.98;;;11.02;;
6638;SDS011;3355;52.882;8.430;2024-02-21T08:49:45;19.20;;;10.97;;
6638;SDS011;3355;52.882;8.430;2024-02-21T08:52:12;13.75;;;10.52;;
6638;SDS011;3355;52.882;8.430;2024-02-21T08:54:39;15.17;;;10.10;;
6638;SDS011;3355;52.882;8.430;2024-02-21T08:57:06;16.83;;;10.30;;
6638;SDS011;3355;52.882;8.430;2024-02-21T08:59:33;13.23;;;9.90;;
6638;SDS011;3355;52.882;8.430;2024-02-21T09:02:01;14.63;;;9.30;;
6638;SDS011;3355;52.882;8.430;2024-02-21T09:04:28;12.27;;;9.55;;
6638;SDS011;3355;52.882;8.430;2024-02-21T09:06:59;13.60;;;9.57;;
6638;SDS011;3355;52.882;8.430;2024-02-21T09:09:25;16.60;;;9.50;;
6638;SDS011;3355;52.882;8.430;2024-02-21T09:11:53;14.23;;;8.63;;
6638;SDS011;3355;52.882;8.430;2024-02-21T09:14:20;18.53;;;10.23;;
6638;SDS011;3355;52.882;8.430;2024-02-21T09:16:49;14.57;;;9.57;;
6638;SDS011;3355;52.882;8.430;2024-02-21T09:19:17;13.00;;;9.67;;
6638;SDS011;3355;52.882;8.430;2024-02-21T09:21:43;14.67;;;10.03;;
6638;SDS011;3355;52.882;8.430;2024-02-21T09:24:13;13.48;;;9.57;;
6638;SDS011;3355;52.882;8.430;2024-02-21T09:26:40;15.83;;;9.10;;
6638;SDS011;3355;52.882;8.430;2024-02-21T09:29:07;12.60;;;10.10;;
6638;SDS011;3355;52.882;8.430;2024-02-21T09:31:34;16.10;;;9.67;;
6638;SDS011;3355;52.882;8.430;2024-02-21T09:34:01;13.80;;;10.10;;
6638;SDS011;3355;52.882;8.430;2024-02-21T09:36:29;20.13;;;11.80;;
6638;SDS011;3355;52.882;8.430;2024-02-21T09:38:56;13.93;;;8.90;;
6638;SDS011;3355;52.882;8.430;2024-02-21T09:41:25;13.80;;;10.73;;
6638;SDS011;3355;52.882;8.430;2024-02-21T09:43:53;15.10;;;9.27;;
6638;SDS011;3355;52.882;8.430;2024-02-21T09:46:24;17.30;;;10.70;;
6638;SDS011;3355;52.882;8.430;2024-02-21T09:48:58;13.40;;;8.90;;
6638;SDS011;3355;52.882;8.430;2024-02-21T09:51:42;13.77;;;10.50;;
6638;SDS011;3355;52.882;8.430;2024-02-21T09:54:13;14.73;;;9.70;;
6638;SDS011;3355;52.882;8.430;2024-02-21T09:56:44;16.27;;;9.47;;
6638;SDS011;3355;52.882;8.430;2024-02-21T09:59:15;14.10;;;10.07;;
6638;SDS011;3355;52.882;8.430;2024-02-21T10:01:45;15.33;;;10.30;;
6638;SDS011;3355;52.882;8.430;2024-02-21T10:04:12;16.40;;;9.50;;
6638;SDS011;3355;52.882;8.430;2024-02-21T10:06:39;14.17;;;9.90;;
6638;SDS011;3355;52.882;8.430;2024-02-21T10:09:21;12.50;;;7.70;;
6638;SDS011;3355;52.882;8.430;2024-02-21T10:11:53;15.33;;;8.47;;
6638;SDS011;3355;52.882;8.430;2024-02-21T10:14:21;11.53;;;8.90;;
6638;SDS011;3355;52.882;8.430;2024-02-21T10:16:48;15.93;;;8.10;;
6638;SDS011;3355;52.882;8.430;2024-02-21T10:19:23;11.90;;;8.73;;
6638;SDS011;3355;52.882;8.430;2024-02-21T10:22:02;11.60;;;8.25;;
6638;SDS011;3355;52.882;8.430;2024-02-21T10:24:31;13.23;;;8.87;;
6638;SDS011;3355;52.882;8.430;2024-02-21T10:26:58;11.90;;;9.10;;
6638;SDS011;3355;52.882;8.430;2024-02-21T10:29:29;17.33;;;9.37;;
6638;SDS011;3355;52.882;8.430;2024-02-21T10:32:08;14.10;;;9.30;;
6638;SDS011;3355;52.882;8.430;2024-02-21T10:34:36;15.30;;;8.57;;
6638;SDS011;3355;52.882;8.430;2024-02-21T10:37:06;14.13;;;9.30;;
6638;SDS011;3355;52.882;8.430;2024-02-21T10:39:37;12.85;;;8.23;;
6638;SDS011;3355;52.882;8.430;2024-02-21T10:42:11;14.53;;;8.63;;
6638;SDS011;3355;52.882;8.430;2024-02-21T10:44:42;10.53;;;7.97;;
6638;SDS011;3355;52.882;8.430;2024-02-21T10:47:18;11.70;;;7.87;;
6638;SDS011;3355;52.882;8.430;2024-02-21T10:49:49;16.33;;;8.47;;
6638;SDS011;3355;52.882;8.430;2024-02-21T10:52:21;19.43;;;8.27;;
6638;SDS011;3355;52.882;8.430;2024-02-21T10:54:55;10.77;;;7.50;;
6638;SDS011;3355;52.882;8.430;2024-02-21T10:57:26;9.27;;;7.47;;
6638;SDS011;3355;52.882;8.430;2024-02-21T10:59:59;9.97;;;8.37;;
6638;SDS011;3355;52.882;8.430;2024-02-21T11:02:33;13.17;;;6.90;;
6638;SDS011;3355;52.882;8.430;2024-02-21T11:05:01;11.80;;;7.85;;
6638;SDS011;3355;52.882;8.430;2024-02-21T11:07:32;11.67;;;7.30;;
6638;SDS011;3355;52.882;8.430;2024-02-21T11:10:03;10.20;;;6.87;;
6638;SDS011;3355;52.882;8.430;2024-02-21T11:12:46;13.97;;;6.63;;
6638;SDS011;3355;52.882;8.430;2024-02-21T11:15:14;9.57;;;6.82;;
6638;SDS011;3355;52.882;8.430;2024-02-21T11:17:41;8.90;;;7.07;;
6638;SDS011;3355;52.882;8.430;2024-02-21T11:20:13;9.87;;;7.63;;
6638;SDS011;3355;52.882;8.430;2024-02-21T11:22:41;14.23;;;6.93;;
6638;SDS011;3355;52.882;8.430;2024-02-21T11:25:09;8.73;;;5.97;;
6638;SDS011;3355;52.882;8.430;2024-02-21T11:27:39;11.77;;;6.10;;
6638;SDS011;3355;52.882;8.430;2024-02-21T11:30:14;7.60;;;5.53;;
6638;SDS011;3355;52.882;8.430;2024-02-21T11:32:47;8.80;;;5.70;;
6638;SDS011;3355;52.882;8.430;2024-02-21T11:35:19;15.37;;;6.37;;
6638;SDS011;3355;52.882;8.430;2024-02-21T11:37:48;10.53;;;5.87;;
6638;SDS011;3355;52.882;8.430;2024-02-21T11:40:16;7.27;;;5.47;;
6638;SDS011;3355;52.882;8.430;2024-02-21T11:42:43;9.37;;;5.53;;
6638;SDS011;3355;52.882;8.430;2024-02-21T11:45:10;9.87;;;6.30;;
6638;SDS011;3355;52.882;8.430;2024-02-21T11:47:37;9.07;;;5.30;;
6638;SDS011;3355;52.882;8.430;2024-02-21T11:50:09;8.07;;;5.40;;
6638;SDS011;3355;52.882;8.430;2024-02-21T11:52:41;8.07;;;5.80;;
6638;SDS011;3355;52.882;8.430;2024-02-21T11:55:11;10.30;;;4.87;;
6638;SDS011;3355;52.882;8.430;2024-02-21T11:57:39;5.67;;;4.73;;
6638;SDS011;3355;52.882;8.430;2024-02-21T12:00:14;7.93;;;4.40;;
6638;SDS011;3355;52.882;8.430;2024-02-21T12:02:45;8.47;;;4.10;;
6638;SDS011;3355;52.882;8.430;2024-02-21T12:05:15;6.50;;;4.50;;
6638;SDS011;3355;52.882;8.430;2024-02-21T12:07:42;5.00;;;4.03;;
6638;SDS011;3355;52.882;8.430;2024-02-21T12:10:10;8.53;;;4.10;;
6638;SDS011;3355;52.882;8.430;2024-02-21T12:12:37;6.72;;;4.22;;
6638;SDS011;3355;52.882;8.430;2024-02-21T12:15:14;4.90;;;3.57;;
6638;SDS011;3355;52.882;8.430;2024-02-21T12:17:43;11.60;;;4.40;;
6638;SDS011;3355;52.882;8.430;2024-02-21T12:20:11;8.17;;;4.53;;
6638;SDS011;3355;52.882;8.430;2024-02-21T12:22:38;5.90;;;4.17;;
6638;SDS011;3355;52.882;8.430;2024-02-21T12:25:15;8.73;;;4.20;;
6638;SDS011;3355;52.882;8.430;2024-02-21T12:27:50;5.70;;;4.97;;
6638;SDS011;3355;52.882;8.430;2024-02-21T12:30:16;7.70;;;4.73;;
6638;SDS011;3355;52.882;8.430;2024-02-21T12:32:44;6.07;;;4.40;;
6638;SDS011;3355;52.882;8.430;2024-02-21T12:35:11;11.37;;;4.30;;
6638;SDS011;3355;52.882;8.430;2024-02-21T12:37:37;5.37;;;3.90;;
6638;SDS011;3355;52.882;8.430;2024-02-21T12:40:05;8.47;;;4.40;;
6638;SDS011;3355;52.882;8.430;2024-02-21T12:42:32;7.17;;;4.13;;
6638;SDS011;3355;52.882;8.430;2024-02-21T12:45:01;7.60;;;4.40;;
6638;SDS011;3355;52.882;8.430;2024-02-21T12:47:28;6.97;;;4.60;;
6638;SDS011;3355;52.882;8.430;2024-02-21T12:49:55;6.73;;;5.40;;
6638;SDS011;3355;52.882;8.430;2024-02-21T12:52:24;5.88;;;5.22;;
6638;SDS011;3355;52.882;8.430;2024-02-21T12:54:52;7.78;;;5.82;;
6638;SDS011;3355;52.882;8.430;2024-02-21T12:57:21;10.37;;;5.90;;
6638;SDS011;3355;52.882;8.430;2024-02-21T12:59:50;10.10;;;6.80;;
6638;SDS011;3355;52.882;8.430;2024-02-21T13:02:19;11.23;;;7.17;;
6638;SDS011;3355;52.882;8.430;2024-02-21T13:04:48;7.77;;;6.40;;
6638;SDS011;3355;52.882;8.430;2024-02-21T13:07:16;8.90;;;6.30;;
6638;SDS011;3355;52.882;8.430;2024-02-21T13:09:44;8.20;;;6.57;;
6638;SDS011;3355;52.882;8.430;2024-02-21T13:12:11;8.20;;;6.70;;
6638;SDS011;3355;52.882;8.430;2024-02-21T13:14:38;8.53;;;7.40;;
6638;SDS011;3355;52.882;8.430;2024-02-21T13:17:08;8.38;;;7.22;;
6638;SDS011;3355;52.882;8.430;2024-02-21T13:19:37;9.53;;;7.33;;
6638;SDS011;3355;52.882;8.430;2024-02-21T13:22:06;7.82;;;7.03;;
6638;SDS011;3355;52.882;8.430;2024-02-21T13:24:33;8.27;;;7.47;;
6638;SDS011;3355;52.882;8.430;2024-02-21T14:49:27;10.30;;;5.70;;
6638;SDS011;3355;52.882;8.430;2024-02-21T14:51:57;7.70;;;5.95;;
6638;SDS011;3355;52.882;8.430;2024-02-21T14:54:23;7.90;;;5.13;;
6638;SDS011;3355;52.882;8.430;2024-02-21T14:56:51;8.03;;;4.57;;
6638;SDS011;3355;52.882;8.430;2024-02-21T14:59:19;5.73;;;4.70;;
6638;SDS011;3355;52.882;8.430;2024-02-21T15:01:49;8.07;;;5.17;;
6638;SDS011;3355;52.882;8.430;2024-02-21T15:04:15;11.10;;;6.00;;
6638;SDS011;3355;52.882;8.430;2024-02-21T15:06:43;11.80;;;4.90;;
6638;SDS011;3355;52.882;8.430;2024-02-21T15:09:10;8.37;;;4.87;;
6638;SDS011;3355;52.882;8.430;2024-02-21T15:11:37;11.27;;;5.43;;
6638;SDS011;3355;52.882;8.430;2024-02-21T15:14:04;11.10;;;6.23;;
6638;SDS011;3355;52.882;8.430;2024-02-21T15:16:30;7.40;;;5.03;;
6638;SDS011;3355;52.882;8.430;2024-02-21T15:19:02;12.15;;;6.70;;
6638;SDS011;3355;52.882;8.430;2024-02-21T15:21:29;8.20;;;6.03;;
6638;SDS011;3355;52.882;8.430;2024-02-21T15:23:57;7.20;;;6.03;;
6638;SDS011;3355;52.882;8.430;2024-02-21T15:26:25;6.93;;;5.60;;
6638;SDS011;3355;52.882;8.430;2024-02-21T15:28:53;10.53;;;5.60;;
6638;SDS011;3355;52.882;8.430;2024-02-21T15:31:21;7.30;;;5.90;;
6638;SDS011;3355;52.882;8.430;2024-02-21T15:33:49;10.67;;;7.03;;
6638;SDS011;3355;52.882;8.430;2024-02-21T15:36:15;8.73;;;5.90;;
6638;SDS011;3355;52.882;8.430;2024-02-21T15:38:42;8.37;;;6.13;;
6638;SDS011;3355;52.882;8.430;2024-02-21T15:41:12;8.80;;;6.63;;
6638;SDS011;3355;52.882;8.430;2024-02-21T15:43:39;8.20;;;6.60;;
6638;SDS011;3355;52.882;8.430;2024-02-21T15:46:10;8.10;;;6.73;;
6638;SDS011;3355;52.882;8.430;2024-02-21T15:48:37;8.67;;;6.50;;
6638;SDS011;3355;52.882;8.430;2024-02-21T15:51:04;10.50;;;6.88;;
6638;SDS011;3355;52.882;8.430;2024-02-21T15:53:31;8.77;;;5.87;;
6638;SDS011;3355;52.882;8.430;2024-02-21T15:55:58;11.97;;;6.47;;
6638;SDS011;3355;52.882;8.430;2024-02-21T15:58:26;9.20;;;5.93;;
6638;SDS011;3355;52.882;8.430;2024-02-21T16:00:52;10.73;;;6.93;;
6638;SDS011;3355;52.882;8.430;2024-02-21T16:03:19;9.90;;;7.17;;
6638;SDS011;3355;52.882;8.430;2024-02-21T16:05:46;7.53;;;6.17;;
6638;SDS011;3355;52.882;8.430;2024-02-21T16:08:13;9.20;;;6.93;;
6638;SDS011;3355;52.882;8.430;2024-02-21T16:10:43;8.40;;;6.70;;
6638;SDS011;3355;52.882;8.430;2024-02-21T16:13:15;6.97;;;4.97;;
6638;SDS011;3355;52.882;8.430;2024-02-21T16:15:44;9.87;;;5.40;;
6638;SDS011;3355;52.882;8.430;2024-02-21T16:18:11;7.97;;;6.03;;
6638;SDS011;3355;52.882;8.430;2024-02-21T16:20:40;7.30;;;5.90;;
6638;SDS011;3355;52.882;8.430;2024-02-21T16:23:06;9.93;;;6.50;;
6638;SDS011;3355;52.882;8.430;2024-02-21T16:25:33;6.82;;;5.28;;
6638;SDS011;3355;52.882;8.430;2024-02-21T16:28:00;7.73;;;5.40;;
6638;SDS011;3355;52.882;8.430;2024-02-21T16:30:27;9.03;;;5.83;;
6638;SDS011;3355;52.882;8.430;2024-02-21T16:32:58;8.07;;;5.07;;
6638;SDS011;3355;52.882;8.430;2024-02-21T16:35:27;7.43;;;5.10;;
6638;SDS011;3355;52.882;8.430;2024-02-21T16:37:55;9.77;;;5.30;;
6638;SDS011;3355;52.882;8.430;2024-02-21T16:40:21;9.17;;;5.43;;
6638;SDS011;3355;52.882;8.430;2024-02-21T16:42:50;8.20;;;5.17;;
6638;SDS011;3355;52.882;8.430;2024-02-21T16:45:20;8.97;;;4.63;;
6638;SDS011;3355;52.882;8.430;2024-02-21T16:47:47;5.47;;;4.30;;
6638;SDS011;3355;52.882;8.430;2024-02-21T16:50:15;12.83;;;5.50;;
6638;SDS011;3355;52.882;8.430;2024-02-21T16:52:42;8.70;;;5.27;;
6638;SDS011;3355;52.882;8.430;2024-02-21T16:55:09;7.50;;;4.67;;
6638;SDS011;3355;52.882;8.430;2024-02-21T16:57:35;10.20;;;4.80;;
6638;SDS011;3355;52.882;8.430;2024-02-21T17:00:04;11.40;;;5.07;;
6638;SDS011;3355;52.882;8.430;2024-02-21T17:02:36;7.87;;;4.20;;
6638;SDS011;3355;52.882;8.430;2024-02-21T17:05:03;5.47;;;4.10;;
6638;SDS011;3355;52.882;8.430;2024-02-21T17:07:35;8.20;;;4.45;;
6638;SDS011;3355;52.882;8.430;2024-02-21T17:10:02;6.53;;;4.60;;
6638;SDS011;3355;52.882;8.430;2024-02-21T17:12:33;7.40;;;4.53;;
6638;SDS011;3355;52.882;8.430;2024-02-21T17:15:01;6.93;;;5.03;;
6638;SDS011;3355;52.882;8.430;2024-02-21T17:17:28;9.02;;;4.72;;
6638;SDS011;3355;52.882;8.430;2024-02-21T17:19:55;7.83;;;4.83;;
6638;SDS011;3355;52.882;8.430;2024-02-21T17:22:22;8.77;;;4.50;;
6638;SDS011;3355;52.882;8.430;2024-02-21T17:24:53;5.43;;;3.53;;
6638;SDS011;3355;52.882;8.430;2024-02-21T17:27:22;7.47;;;4.10;;
6638;SDS011;3355;52.882;8.430;2024-02-21T17:29:49;6.70;;;4.17;;
6638;SDS011;3355;52.882;8.430;2024-02-21T17:32:19;9.30;;;4.37;;
6638;SDS011;3355;52.882;8.430;2024-02-21T17:34:46;6.50;;;3.27;;
6638;SDS011;3355;52.882;8.430;2024-02-21T17:37:13;7.45;;;3.70;;
6638;SDS011;3355;52.882;8.430;2024-02-21T17:39:39;10.23;;;4.30;;
6638;SDS011;3355;52.882;8.430;2024-02-21T17:42:07;5.10;;;3.10;;
6638;SDS011;3355;52.882;8.430;2024-02-21T17:44:37;5.67;;;3.00;;
6638;SDS011;3355;52.882;8.430;2024-02-21T17:47:07;7.88;;;3.70;;
6638;SDS011;3355;52.882;8.430;2024-02-21T17:49:35;6.27;;;3.63;;
6638;SDS011;3355;52.882;8.430;2024-02-21T17:52:02;6.10;;;3.95;;
6638;SDS011;3355;52.882;8.430;2024-02-21T17:54:32;5.03;;;2.80;;
6638;SDS011;3355;52.882;8.430;2024-02-21T17:56:59;7.17;;;3.63;;
6638;SDS011;3355;52.882;8.430;2024-02-21T17:59:27;6.23;;;3.70;;
6638;SDS011;3355;52.882;8.430;2024-02-21T18:01:54;6.23;;;3.40;;
6638;SDS011;3355;52.882;8.430;2024-02-21T18:04:20;7.30;;;3.07;;
6638;SDS011;3355;52.882;8.430;2024-02-21T18:06:48;5.90;;;3.07;;
6638;SDS011;3355;52.882;8.430;2024-02-21T18:09:15;6.70;;;3.53;;
6638;SDS011;3355;52.882;8.430;2024-02-21T18:11:44;6.53;;;3.10;;
6638;SDS011;3355;52.882;8.430;2024-02-21T18:14:11;8.07;;;3.83;;
6638;SDS011;3355;52.882;8.430;2024-02-21T18:16:39;6.23;;;3.40;;
6638;SDS011;3355;52.882;8.430;2024-02-21T18:19:06;7.03;;;3.27;;
6638;SDS011;3355;52.882;8.430;2024-02-21T18:21:36;8.13;;;3.73;;
6638;SDS011;3355;52.882;8.430;2024-02-21T18:24:02;5.93;;;3.45;;
6638;SDS011;3355;52.882;8.430;2024-02-21T18:26:30;9.27;;;3.67;;
6638;SDS011;3355;52.882;8.430;2024-02-21T18:29:00;5.90;;;3.38;;
6638;SDS011;3355;52.882;8.430;2024-02-21T18:31:27;6.87;;;3.30;;
6638;SDS011;3355;52.882;8.430;2024-02-21T18:33:55;5.40;;;3.07;;
6638;SDS011;3355;52.882;8.430;2024-02-21T18:36:23;7.20;;;3.33;;
6638;SDS011;3355;52.882;8.430;2024-02-21T18:38:55;4.43;;;3.10;;
6638;SDS011;3355;52.882;8.430;2024-02-21T18:41:22;5.07;;;3.23;;
6638;SDS011;3355;52.882;8.430;2024-02-21T18:43:50;5.77;;;3.10;;
6638;SDS011;3355;52.882;8.430;2024-02-21T18:46:17;8.70;;;3.43;;
6638;SDS011;3355;52.882;8.430;2024-02-21T18:48:44;8.90;;;3.40;;
6638;SDS011;3355;52.882;8.430;2024-02-21T18:51:13;3.23;;;2.50;;
6638;SDS011;3355;52.882;8.430;2024-02-21T18:53:40;6.70;;;3.47;;
6638;SDS011;3355;52.882;8.430;2024-02-21T18:56:09;7.27;;;3.17;;
6638;SDS011;3355;52.882;8.430;2024-02-21T18:58:53;7.93;;;2.67;;
6638;SDS011;3355;52.882;8.430;2024-02-21T19:01:23;4.85;;;2.97;;
6638;SDS011;3355;52.882;8.430;2024-02-21T19:03:53;5.80;;;2.63;;
6638;SDS011;3355;52.882;8.430;2024-02-21T19:06:24;6.73;;;2.80;;
6638;SDS011;3355;52.882;8.430;2024-02-21T19:08:51;4.60;;;2.67;;
6638;SDS011;3355;52.882;8.430;2024-02-21T19:11:28;4.60;;;2.70;;
6638;SDS011;3355;52.882;8.430;2024-02-21T19:13:55;3.50;;;2.77;;
6638;SDS011;3355;52.882;8.430;2024-02-21T19:16:22;7.97;;;3.57;;
6638;SDS011;3355;52.882;8.430;2024-02-21T19:18:48;5.27;;;2.80;;
6638;SDS011;3355;52.882;8.430;2024-02-21T19:21:16;5.07;;;2.72;;
6638;SDS011;3355;52.882;8.430;2024-02-21T19:23:45;4.90;;;2.60;;
6638;SDS011;3355;52.882;8.430;2024-02-21T19:26:12;5.63;;;2.73;;
6638;SDS011;3355;52.882;8.430;2024-02-21T19:28:42;6.33;;;3.00;;
6638;SDS011;3355;52.882;8.430;2024-02-21T19:31:10;5.97;;;2.40;;
6638;SDS011;3355;52.882;8.430;2024-02-21T19:33:38;5.20;;;3.33;;
6638;SDS011;3355;52.882;8.430;2024-02-21T19:36:05;5.95;;;3.05;;
6638;SDS011;3355;52.882;8.430;2024-02-21T19:38:34;7.03;;;3.67;;
6638;SDS011;3355;52.882;8.430;2024-02-21T19:41:02;8.73;;;2.77;;
6638;SDS011;3355;52.882;8.430;2024-02-21T19:43:29;3.80;;;2.53;;
6638;SDS011;3355;52.882;8.430;2024-02-21T19:45:56;4.30;;;2.70;;
6638;SDS011;3355;52.882;8.430;2024-02-21T19:48:22;4.27;;;2.93;;
6638;SDS011;3355;52.882;8.430;2024-02-21T19:50:49;5.05;;;3.17;;
6638;SDS011;3355;52.882;8.430;2024-02-21T19:53:16;4.30;;;2.53;;
6638;SDS011;3355;52.882;8.430;2024-02-21T19:55:51;4.53;;;2.50;;
6638;SDS011;3355;52.882;8.430;2024-02-21T19:58:27;3.97;;;2.43;;
6638;SDS011;3355;52.882;8.430;2024-02-21T20:01:05;5.72;;;2.22;;
6638;SDS011;3355;52.882;8.430;2024-02-21T20:03:32;3.73;;;2.60;;
6638;SDS011;3355;52.882;8.430;2024-02-21T20:05:59;7.17;;;2.90;;
6638;SDS011;3355;52.882;8.430;2024-02-21T20:08:37;4.30;;;2.73;;
6638;SDS011;3355;52.882;8.430;2024-02-21T20:11:22;6.60;;;2.73;;
6638;SDS011;3355;52.882;8.430;2024-02-21T20:14:00;7.03;;;3.00;;
6638;SDS011;3355;52.882;8.430;2024-02-21T20:16:27;5.83;;;2.60;;
6638;SDS011;3355;52.882;8.430;2024-02-21T20:18:56;4.00;;;2.80;;
6638;SDS011;3355;52.882;8.430;2024-02-21T20:21:23;5.37;;;2.80;;
6638;SDS011;3355;52.882;8.430;2024-02-21T20:23:50;5.23;;;3.00;;
6638;SDS011;3355;52.882;8.430;2024-02-21T20:26:21;4.87;;;2.90;;
6638;SDS011;3355;52.882;8.430;2024-02-21T20:28:48;6.23;;;2.30;;
6638;SDS011;3355;52.882;8.430;2024-02-21T20:31:17;5.22;;;2.40;;
